Time;durP1;ratioP1;P1;durP2;ratioP2;P2;SDS_P1;SDS_P2;PMS_P1;PMS_P2;Temp;Humidity;BMP_temperature;BMP_pressure;BME280_temperature;BME280_humidity;BME280_pressure;Samples;Min_cycle;Max_cycle;Signal;HPM_P1;HPM_P2
2022/05/30 00:01:28;;;;;;;;;;;;;;;10.31;78.97;100049.33;84831;1323;22577;-72
2022/05/30 00:03:34;;;;;;;;;;;;;;;10.29;78.95;100048.15;84820;1324;22554;-72
2022/05/30 00:05:46;;;;;;;;;;;;;;;10.26;79.00;100045.32;84822;1323;22573;-72
2022/05/30 00:07:52;;;;;;;;;;;;;;;10.25;79.10;100039.27;84840;1323;22609;-73
2022/05/30 00:09:58;;;;;;;;;;;;;;;10.23;79.20;100040.20;84819;1323;22567;-73
2022/05/30 00:12:05;;;;;;;;;;;;;;;10.21;79.23;100034.38;84813;1323;22576;-72
2022/05/30 00:14:11;;;;;;;;;;;;;;;10.19;79.12;100027.80;84868;1324;22579;-71
2022/05/30 00:16:19;;;;;;;;;;;;;;;10.20;79.27;100030.25;84807;1325;22571;-72
2022/05/30 00:18:25;;;;;;;;;;;;;;;10.17;79.23;100031.58;84823;1325;22840;-71
2022/05/30 00:20:33;;;;;;;;;;;;;;;10.13;79.24;100027.52;84809;1320;22563;-72
2022/05/30 00:22:39;;;;;;;;;;;;;;;10.10;79.36;100026.96;84810;1324;22570;-72
2022/05/30 00:24:45;;;;;;;;;;;;;;;10.07;79.49;100025.02;84815;1320;22551;-72
2022/05/30 00:26:51;;;;;;;;;;;;;;;10.03;79.63;100024.45;84824;1324;22570;-72
2022/05/30 00:28:58;;;;;;;;;;;;;;;10.00;79.57;100019.86;84809;1323;23981;-71
2022/05/30 00:31:04;;;;;;;;;;;;;;;9.98;79.70;100021.54;84818;1323;22879;-72
2022/05/30 00:33:10;;;;;;;;;;;;;;;9.97;79.79;100022.30;84835;1324;25312;-72
2022/05/30 00:35:16;;;;;;;;;;;;;;;9.95;79.70;100018.70;84798;1325;25384;-72
2022/05/30 00:37:22;;;;;;;;;;;;;;;9.95;80.24;100020.96;84846;1323;25211;-72
2022/05/30 00:39:32;;;;;;;;;;;;;;;9.96;80.23;100018.86;84830;1325;25412;-71
2022/05/30 00:41:38;;;;;;;;;;;;;;;9.96;80.41;100012.71;84822;1324;22589;-71
2022/05/30 00:43:45;;;;;;;;;;;;;;;9.98;80.53;100014.05;84852;1322;22571;-71
2022/05/30 00:45:51;;;;;;;;;;;;;;;9.99;80.58;100013.46;84825;1324;22570;-72
2022/05/30 00:47:57;;;;;;;;;;;;;;;10.01;80.68;100010.77;84830;1325;22563;-72
2022/05/30 00:50:03;;;;;;;;;;;;;;;10.04;80.65;100010.84;84828;1324;23753;-72
2022/05/30 00:52:10;;;;;;;;;;;;;;;10.06;80.65;100007.95;84846;1323;22547;-72
2022/05/30 00:54:18;;;;;;;;;;;;;;;10.12;80.84;100005.44;84844;1324;22566;-72
2022/05/30 00:56:27;;;;;;;;;;;;;;;10.17;80.76;100003.16;84839;1324;23057;-71
2022/05/30 00:58:34;;;;;;;;;;;;;;;10.20;80.77;99999.35;84832;1324;22592;-72
2022/05/30 01:00:40;;;;;;;;;;;;;;;10.24;80.61;99996.39;84857;1324;22573;-72
2022/05/30 01:06:30;;;;;;;;;;;;;;;10.31;80.54;99995.95;84849;1325;22777;-72
2022/05/30 01:07:37;;;;;;;;;;;;;;;10.42;80.78;100002.65;84846;1324;22569;-72
2022/05/30 01:09:44;;;;;;;;;;;;;;;10.42;80.82;99999.48;84825;1324;22573;-71
2022/05/30 01:11:52;;;;;;;;;;;;;;;10.45;80.86;99990.13;84846;1324;24311;-71
2022/05/30 01:13:58;;;;;;;;;;;;;;;10.46;81.02;99987.62;84829;1319;22608;-70
2022/05/30 01:16:05;;;;;;;;;;;;;;;10.49;81.14;99981.92;84843;1324;22575;-71
2022/05/30 01:18:12;;;;;;;;;;;;;;;10.49;81.16;99986.98;84751;1323;22593;-72
2022/05/30 01:20:33;;;;;;;;;;;;;;;10.49;81.15;99988.74;84779;1326;22556;-72
2022/05/30 01:22:57;;;;;;;;;;;;;;;10.47;81.07;99981.66;84777;1325;22595;-72
2022/05/30 01:25:05;;;;;;;;;;;;;;;10.46;81.09;99980.14;84825;1327;22572;-72
2022/05/30 01:27:18;;;;;;;;;;;;;;;10.47;81.16;99983.25;84807;1326;22574;-72
2022/05/30 01:29:25;;;;;;;;;;;;;;;10.45;81.10;99986.11;84805;1325;22573;-72
2022/05/30 01:31:31;;;;;;;;;;;;;;;10.43;81.29;99983.56;84788;1327;22625;-71
2022/05/30 01:33:37;;;;;;;;;;;;;;;10.42;81.64;99975.45;84807;1325;22588;-72
2022/05/30 01:35:49;;;;;;;;;;;;;;;10.40;81.52;99962.65;84793;1322;22589;-72
2022/05/30 01:37:57;;;;;;;;;;;;;;;10.38;81.51;99955.40;84795;1327;22584;-72
2022/05/30 01:40:07;;;;;;;;;;;;;;;10.37;81.57;99952.46;84829;1326;22646;-73
2022/05/30 01:42:15;;;;;;;;;;;;;;;10.38;81.77;99951.76;84810;1324;22847;-72
2022/05/30 01:44:21;;;;;;;;;;;;;;;10.36;81.84;99957.38;84826;1324;22570;-72
2022/05/30 01:46:27;;;;;;;;;;;;;;;10.35;81.73;99957.77;84825;1324;22554;-72
2022/05/30 01:48:33;;;;;;;;;;;;;;;10.37;81.89;99951.44;84817;1323;22589;-72
2022/05/30 01:50:39;;;;;;;;;;;;;;;10.38;81.94;99950.50;84785;1324;22561;-72
2022/05/30 01:52:45;;;;;;;;;;;;;;;10.39;82.23;99950.11;84732;1324;22572;-72
2022/05/30 01:54:51;;;;;;;;;;;;;;;10.40;82.43;99949.20;84679;1324;25272;-70
2022/05/30 01:56:57;;;;;;;;;;;;;;;10.41;82.45;99948.80;84794;1323;22616;-72
2022/05/30 01:59:03;;;;;;;;;;;;;;;10.42;82.76;99949.46;84832;1324;22579;-72
2022/05/30 02:01:16;;;;;;;;;;;;;;;10.45;83.08;99950.52;84708;1324;22611;-72
2022/05/30 02:03:22;;;;;;;;;;;;;;;10.48;83.08;99949.69;84820;1323;22563;-73
2022/05/30 02:05:30;;;;;;;;;;;;;;;10.51;83.28;99943.48;84813;1323;23052;-72
2022/05/30 02:07:36;;;;;;;;;;;;;;;10.55;83.30;99944.16;84815;1325;22567;-72
2022/05/30 02:09:43;;;;;;;;;;;;;;;10.59;83.21;99947.48;84813;1324;22575;-73
2022/05/30 02:11:49;;;;;;;;;;;;;;;10.61;83.17;99948.62;84820;1324;22554;-72
2022/05/30 02:13:55;;;;;;;;;;;;;;;10.62;83.23;99948.58;84824;1325;22565;-72
2022/05/30 02:18:26;;;;;;;;;;;;;;;10.67;83.09;99948.66;84811;1324;22561;-72
2022/05/30 02:20:32;;;;;;;;;;;;;;;10.68;83.22;99950.21;84833;1324;22570;-72
2022/05/30 02:22:38;;;;;;;;;;;;;;;10.69;83.07;99948.94;84826;1324;22865;-72
2022/05/30 02:24:44;;;;;;;;;;;;;;;10.72;83.22;99950.03;84819;1325;23865;-73
2022/05/30 02:26:50;;;;;;;;;;;;;;;10.75;83.26;99951.63;84839;1323;24246;-72
2022/05/30 02:28:56;;;;;;;;;;;;;;;10.79;83.28;99950.06;84821;1323;22746;-72
2022/05/30 02:31:02;;;;;;;;;;;;;;;10.80;83.21;99954.89;84828;1325;22619;-73
2022/05/30 02:37:55;;;;;;;;;;;;;;;10.89;83.08;99969.35;84649;1328;22621;-72
2022/05/30 02:40:00;;;;;;;;;;;;;;;10.91;83.01;99970.97;84809;1323;22566;-72
2022/05/30 02:42:07;;;;;;;;;;;;;;;10.95;82.94;99974.64;84829;1324;22573;-71
2022/05/30 02:44:13;;;;;;;;;;;;;;;10.95;82.47;99974.46;84822;1328;23456;-72
2022/05/30 02:46:19;;;;;;;;;;;;;;;10.92;82.26;99980.36;84808;1323;24361;-71
2022/05/30 02:48:25;;;;;;;;;;;;;;;10.89;82.16;99981.01;84834;1324;24367;-71
2022/05/30 02:50:31;;;;;;;;;;;;;;;10.86;82.26;99974.52;84840;1324;24016;-72
2022/05/30 02:52:37;;;;;;;;;;;;;;;10.77;81.91;99968.66;84812;1324;25435;-71
2022/05/30 02:54:43;;;;;;;;;;;;;;;10.70;81.92;99970.34;84795;1325;22622;-72
2022/05/30 02:56:51;;;;;;;;;;;;;;;10.64;81.82;99971.88;84814;1324;22588;-71
2022/05/30 02:58:59;;;;;;;;;;;;;;;10.57;81.93;99969.35;84818;1322;22612;-70
2022/05/30 03:01:05;;;;;;;;;;;;;;;10.50;81.90;99973.83;84816;1324;22568;-70
2022/05/30 03:03:11;;;;;;;;;;;;;;;10.45;81.96;99977.23;84825;1325;22578;-72
2022/05/30 03:05:17;;;;;;;;;;;;;;;10.40;82.33;99973.42;84831;1326;24267;-72
2022/05/30 03:07:23;;;;;;;;;;;;;;;10.38;82.32;99975.98;84835;1324;24356;-72
2022/05/30 03:09:29;;;;;;;;;;;;;;;10.32;82.43;99975.17;84818;1323;24382;-72
2022/05/30 03:11:35;;;;;;;;;;;;;;;10.27;82.71;99977.48;84838;1325;22574;-72
2022/05/30 03:13:41;;;;;;;;;;;;;;;10.23;82.97;99977.98;84830;1324;22683;-72
2022/05/30 03:15:47;;;;;;;;;;;;;;;10.21;83.40;99976.32;84830;1323;22863;-72
2022/05/30 03:17:53;;;;;;;;;;;;;;;10.20;83.42;99977.41;84821;1324;24262;-72
2022/05/30 03:19:59;;;;;;;;;;;;;;;10.17;83.38;99976.66;84832;1328;24379;-71
2022/05/30 03:22:06;;;;;;;;;;;;;;;10.15;83.32;99973.42;84812;1323;22573;-72
2022/05/30 03:24:12;;;;;;;;;;;;;;;10.14;83.66;99975.23;84833;1324;25457;-73
2022/05/30 03:26:17;;;;;;;;;;;;;;;10.13;83.77;99978.05;84808;1323;25417;-73
2022/05/30 03:28:23;;;;;;;;;;;;;;;10.11;83.68;99975.51;84868;1324;25453;-72
2022/05/30 03:30:29;;;;;;;;;;;;;;;10.11;83.97;99976.40;84827;1323;25310;-73
2022/05/30 03:32:35;;;;;;;;;;;;;;;10.12;84.12;99972.02;84837;1324;22575;-72
2022/05/30 03:34:41;;;;;;;;;;;;;;;10.14;84.16;99970.85;84827;1323;23839;-71
2022/05/30 03:36:47;;;;;;;;;;;;;;;10.16;84.32;99973.38;84808;1323;23760;-72
2022/05/30 03:38:53;;;;;;;;;;;;;;;10.17;84.30;99974.40;84807;1328;25419;-73
2022/05/30 03:40:59;;;;;;;;;;;;;;;10.16;84.36;99976.16;84833;1324;22593;-73
2022/05/30 03:43:07;;;;;;;;;;;;;;;10.18;84.45;99971.91;84825;1325;22574;-71
2022/05/30 03:45:14;;;;;;;;;;;;;;;10.20;84.71;99973.55;84833;1323;22568;-71
2022/05/30 03:47:20;;;;;;;;;;;;;;;10.22;84.76;99975.90;84830;1323;22559;-72
2022/05/30 03:49:26;;;;;;;;;;;;;;;10.27;84.66;99974.17;84812;1324;22567;-73
2022/05/30 03:51:32;;;;;;;;;;;;;;;10.29;84.73;99973.70;84816;1324;22577;-72
2022/05/30 03:53:37;;;;;;;;;;;;;;;10.30;84.61;99974.57;84813;1323;22622;-72
2022/05/30 03:55:44;;;;;;;;;;;;;;;10.30;84.27;99972.83;84813;1323;22582;-72
2022/05/30 03:57:52;;;;;;;;;;;;;;;10.30;84.37;99973.69;84798;1324;25413;-72
2022/05/30 03:59:58;;;;;;;;;;;;;;;10.31;84.43;99974.67;84822;1324;22590;-71
2022/05/30 04:02:04;;;;;;;;;;;;;;;10.32;84.40;99972.38;84811;1324;22547;-72
2022/05/30 04:04:12;;;;;;;;;;;;;;;10.34;84.56;99974.58;84803;1324;22558;-71
2022/05/30 04:06:18;;;;;;;;;;;;;;;10.37;84.56;99977.95;84813;1324;24286;-71
2022/05/30 04:08:24;;;;;;;;;;;;;;;10.40;84.55;99976.23;84833;1323;22580;-72
2022/05/30 04:10:30;;;;;;;;;;;;;;;10.41;84.64;99973.58;84834;1324;22567;-73
2022/05/30 04:12:37;;;;;;;;;;;;;;;10.42;84.50;99975.42;84684;1324;182416;-73
2022/05/30 04:14:43;;;;;;;;;;;;;;;10.43;84.80;99970.34;84804;1327;22655;-73
2022/05/30 04:16:49;;;;;;;;;;;;;;;10.44;84.92;99970.64;84820;1324;22557;-72
2022/05/30 04:18:55;;;;;;;;;;;;;;;10.47;85.01;99968.58;84826;1324;22760;-71
2022/05/30 04:21:01;;;;;;;;;;;;;;;10.49;84.77;99968.14;84844;1323;24006;-72
2022/05/30 04:23:07;;;;;;;;;;;;;;;10.47;84.53;99967.35;84821;1324;25442;-73
2022/05/30 04:25:13;;;;;;;;;;;;;;;10.47;84.74;99967.69;84792;1323;22924;-72
2022/05/30 04:27:19;;;;;;;;;;;;;;;10.50;85.07;99966.88;84828;1324;22548;-72
2022/05/30 04:29:25;;;;;;;;;;;;;;;10.53;85.14;99961.52;84826;1324;24341;-72
2022/05/30 04:31:31;;;;;;;;;;;;;;;10.53;84.97;99958.03;84817;1326;24225;-72
2022/05/30 04:33:37;;;;;;;;;;;;;;;10.50;84.86;99951.87;84835;1325;22598;-72
2022/05/30 04:35:45;;;;;;;;;;;;;;;10.47;84.83;99954.81;84801;1324;22587;-72
2022/05/30 04:37:51;;;;;;;;;;;;;;;10.46;85.19;99957.14;84819;1323;22587;-72
2022/05/30 04:39:57;;;;;;;;;;;;;;;10.46;85.41;99958.50;84840;1323;22664;-72
2022/05/30 04:42:03;;;;;;;;;;;;;;;10.47;85.34;99954.48;84801;1324;23986;-71
2022/05/30 04:44:10;;;;;;;;;;;;;;;10.45;85.48;99954.89;84831;1322;22715;-73
2022/05/30 04:46:17;;;;;;;;;;;;;;;10.44;85.47;99950.05;84834;1323;22566;-73
2022/05/30 04:48:23;;;;;;;;;;;;;;;10.42;85.35;99947.38;84808;1322;22600;-70
2022/05/30 04:50:29;;;;;;;;;;;;;;;10.39;85.38;99938.92;84797;1328;22867;-70
2022/05/30 04:52:35;;;;;;;;;;;;;;;10.38;85.51;99943.34;84841;1324;22592;-71
2022/05/30 04:54:41;;;;;;;;;;;;;;;10.38;85.45;99943.16;84812;1325;22574;-72
2022/05/30 04:56:47;;;;;;;;;;;;;;;10.38;85.31;99940.03;84814;1324;22554;-72
2022/05/30 04:58:53;;;;;;;;;;;;;;;10.38;85.08;99937.79;84826;1323;22584;-71
2022/05/30 05:01:03;;;;;;;;;;;;;;;10.38;85.12;99937.95;84814;1323;22577;-73
2022/05/30 05:03:09;;;;;;;;;;;;;;;10.38;85.39;99936.89;84824;1323;22570;-71
2022/05/30 05:05:15;;;;;;;;;;;;;;;10.39;85.38;99936.34;84819;1324;23757;-71
2022/05/30 05:07:21;;;;;;;;;;;;;;;10.42;85.47;99934.44;84814;1325;22622;-71
2022/05/30 05:09:35;;;;;;;;;;;;;;;10.46;85.60;99934.12;84837;1323;24196;-71
2022/05/30 05:11:41;;;;;;;;;;;;;;;10.49;85.50;99936.91;84815;1321;22565;-71
2022/05/30 05:13:50;;;;;;;;;;;;;;;10.53;85.54;99939.36;84810;1322;22633;-71
2022/05/30 05:15:58;;;;;;;;;;;;;;;10.56;85.40;99943.25;84825;1324;22571;-71
2022/05/30 05:18:04;;;;;;;;;;;;;;;10.57;85.25;99943.17;84810;1324;22636;-72
2022/05/30 05:20:12;;;;;;;;;;;;;;;10.59;85.34;99945.20;84810;1324;24271;-71
2022/05/30 05:22:18;;;;;;;;;;;;;;;10.66;85.28;99948.73;84827;1323;22564;-71
2022/05/30 05:24:24;;;;;;;;;;;;;;;10.73;85.58;99949.43;84825;1324;22573;-72
2022/05/30 05:26:30;;;;;;;;;;;;;;;10.82;85.42;99946.62;84820;1324;22565;-71
2022/05/30 05:28:36;;;;;;;;;;;;;;;10.89;85.25;99941.77;84816;1323;22697;-71
2022/05/30 05:30:43;;;;;;;;;;;;;;;10.93;85.01;99944.21;84819;1323;22548;-71
2022/05/30 05:32:49;;;;;;;;;;;;;;;10.97;84.73;99944.52;84834;1323;22576;-72
2022/05/30 05:34:55;;;;;;;;;;;;;;;11.03;84.83;99947.56;84829;1324;22606;-71
2022/05/30 05:37:01;;;;;;;;;;;;;;;11.11;85.05;99945.42;84830;1325;22573;-72
2022/05/30 05:39:07;;;;;;;;;;;;;;;11.15;84.62;99945.08;84825;1325;22577;-71
2022/05/30 05:41:13;;;;;;;;;;;;;;;11.15;84.56;99946.64;84823;1323;22580;-71
2022/05/30 05:43:19;;;;;;;;;;;;;;;11.18;84.32;99946.17;84837;1323;22634;-71
2022/05/30 05:45:25;;;;;;;;;;;;;;;11.17;84.07;99949.14;84832;1325;22591;-71
2022/05/30 05:47:32;;;;;;;;;;;;;;;11.15;83.93;99947.17;84808;1324;22571;-72
2022/05/30 05:49:38;;;;;;;;;;;;;;;11.12;83.85;99948.54;84829;1325;25428;-72
2022/05/30 05:51:44;;;;;;;;;;;;;;;11.08;83.92;99943.62;84899;1327;24690;-73
2022/05/30 05:53:50;;;;;;;;;;;;;;;11.09;84.01;99939.77;84895;1325;22584;-72
2022/05/30 05:55:56;;;;;;;;;;;;;;;11.10;84.07;99933.45;84903;1328;22583;-72
2022/05/30 05:58:02;;;;;;;;;;;;;;;11.10;83.90;99935.68;84855;1324;25899;-71
2022/05/30 06:00:16;;;;;;;;;;;;;;;11.10;83.94;99932.04;84883;1324;25840;-69
2022/05/30 06:02:23;;;;;;;;;;;;;;;11.10;84.17;99929.40;84836;1324;24032;-71
2022/05/30 06:04:34;;;;;;;;;;;;;;;11.07;83.89;99929.88;84822;1323;22570;-71
2022/05/30 06:06:40;;;;;;;;;;;;;;;11.06;84.03;99926.96;84825;1324;22530;-72
2022/05/30 06:08:46;;;;;;;;;;;;;;;11.08;84.04;99927.94;84803;1325;25907;-72
2022/05/30 06:11:09;;;;;;;;;;;;;;;11.08;84.25;99928.82;84804;1323;25328;-72
2022/05/30 06:13:15;;;;;;;;;;;;;;;11.08;84.29;99928.83;84824;1324;22624;-72
2022/05/30 06:15:22;;;;;;;;;;;;;;;11.12;84.48;99930.35;84810;1322;22764;-72
2022/05/30 06:17:28;;;;;;;;;;;;;;;11.12;84.29;99926.52;84823;1323;22788;-72
2022/05/30 06:19:34;;;;;;;;;;;;;;;11.14;84.50;99928.91;84835;1324;22934;-72
2022/05/30 06:21:41;;;;;;;;;;;;;;;11.19;84.56;99925.70;84819;1326;22589;-71
2022/05/30 06:23:48;;;;;;;;;;;;;;;11.23;84.55;99927.38;84760;1327;22760;-71
2022/05/30 06:25:54;;;;;;;;;;;;;;;11.29;84.54;99926.95;84817;1324;24414;-71
2022/05/30 06:27:59;;;;;;;;;;;;;;;11.36;84.27;99927.48;84803;1320;24195;-72
2022/05/30 06:30:23;;;;;;;;;;;;;;;11.41;84.33;99924.12;84835;1320;24357;-72
2022/05/30 06:32:34;;;;;;;;;;;;;;;11.47;84.58;99921.90;84849;1324;22612;-71
2022/05/30 06:34:40;;;;;;;;;;;;;;;11.54;84.47;99919.80;84812;1324;22550;-71
2022/05/30 06:36:46;;;;;;;;;;;;;;;11.60;84.43;99920.17;84819;1323;22572;-71
2022/05/30 06:38:52;;;;;;;;;;;;;;;11.68;84.44;99920.52;84838;1323;22580;-71
2022/05/30 06:40:58;;;;;;;;;;;;;;;11.73;84.17;99922.36;84823;1323;23005;-72
2022/05/30 06:43:06;;;;;;;;;;;;;;;11.77;84.14;99921.42;84817;1324;22573;-71
2022/05/30 06:45:20;;;;;;;;;;;;;;;11.82;84.11;99920.50;84811;1324;22570;-71
2022/05/30 06:47:38;;;;;;;;;;;;;;;11.87;84.06;99919.89;84838;1322;22570;-71
2022/05/30 06:49:50;;;;;;;;;;;;;;;11.92;83.78;99920.00;84840;1323;22615;-71
2022/05/30 06:52:09;;;;;;;;;;;;;;;11.96;83.63;99920.84;84827;1324;22584;-71
2022/05/30 07:00:01;;;;;;;;;;;;;;;12.07;83.26;99921.86;84797;1323;22583;-72
2022/05/30 07:02:19;;;;;;;;;;;;;;;12.09;83.27;99921.61;84792;1322;24239;-70
2022/05/30 07:04:44;;;;;;;;;;;;;;;12.11;83.49;99922.86;84843;1323;22621;-71
2022/05/30 07:06:51;;;;;;;;;;;;;;;12.13;82.76;99921.08;84833;1323;24246;-72
2022/05/30 07:08:59;;;;;;;;;;;;;;;12.11;82.66;99921.14;84834;1325;24197;-72
2022/05/30 07:11:06;;;;;;;;;;;;;;;12.11;82.81;99921.98;84823;1323;22559;-71
2022/05/30 07:13:12;;;;;;;;;;;;;;;12.13;82.61;99920.53;84813;1324;22578;-72
2022/05/30 07:15:18;;;;;;;;;;;;;;;12.12;82.45;99917.27;84828;1324;22705;-72
2022/05/30 07:17:25;;;;;;;;;;;;;;;12.11;82.03;99919.92;84842;1324;25930;-72
2022/05/30 07:19:31;;;;;;;;;;;;;;;12.11;82.42;99921.47;84825;1324;23878;-72
2022/05/30 07:21:39;;;;;;;;;;;;;;;12.15;82.49;99917.98;84820;1323;22904;-72
2022/05/30 07:23:45;;;;;;;;;;;;;;;12.19;82.81;99918.80;84805;1324;24256;-71
2022/05/30 07:25:57;;;;;;;;;;;;;;;12.22;82.77;99919.20;84820;1320;24386;-74
2022/05/30 07:28:04;;;;;;;;;;;;;;;12.24;82.65;99922.07;84827;1323;25952;-71
2022/05/30 07:31:26;;;;;;;;;;;;;;;;;;;;;
2022/05/30 07:34:09;;;;;;;;;;;;;;;12.27;82.20;99923.64;84328;1322;22636;-71
2022/05/30 07:36:21;;;;;;;;;;;;;;;12.26;81.75;99925.80;84813;1324;22570;-72
2022/05/30 07:38:27;;;;;;;;;;;;;;;12.22;81.50;99926.16;84812;1322;22980;-72
2022/05/30 07:40:33;;;;;;;;;;;;;;;12.21;81.46;99926.23;84820;1324;22624;-71
2022/05/30 07:42:40;;;;;;;;;;;;;;;12.20;81.42;99926.44;84807;1324;22579;-70
2022/05/30 07:44:46;;;;;;;;;;;;;;;12.22;81.98;99927.77;84816;1323;25310;-71
2022/05/30 07:46:52;;;;;;;;;;;;;;;12.23;81.80;99927.36;84828;1325;22565;-71
2022/05/30 07:48:58;;;;;;;;;;;;;;;12.23;81.55;99924.75;84835;1324;22562;-71
2022/05/30 07:51:07;;;;;;;;;;;;;;;12.23;81.63;99926.16;84831;1320;22584;-71
2022/05/30 07:53:13;;;;;;;;;;;;;;;12.21;81.43;99926.73;84808;1324;22589;-71
2022/05/30 07:55:19;;;;;;;;;;;;;;;12.20;81.11;99925.40;84813;1322;22565;-71
2022/05/30 07:59:45;;;;;;;;;;;;;;;12.21;81.69;99924.67;84803;1328;22772;-72
2022/05/30 08:01:59;;;;;;;;;;;;;;;12.23;81.99;99924.73;84799;1325;24195;-72
2022/05/30 08:04:12;;;;;;;;;;;;;;;12.27;82.30;99924.34;84823;1324;22677;-72
2022/05/30 08:06:21;;;;;;;;;;;;;;;12.30;82.22;99916.98;84811;1321;22873;-71
2022/05/30 08:08:27;;;;;;;;;;;;;;;12.34;82.21;99917.12;84827;1324;25314;-71
2022/05/30 08:10:33;;;;;;;;;;;;;;;12.36;82.07;99916.34;84811;1324;22569;-72
2022/05/30 08:12:39;;;;;;;;;;;;;;;12.42;82.34;99915.67;84809;1323;22570;-72
2022/05/30 08:14:45;;;;;;;;;;;;;;;12.50;82.50;99916.50;84815;1324;22593;-72
2022/05/30 08:16:51;;;;;;;;;;;;;;;12.56;82.43;99917.04;84810;1324;22600;-73
2022/05/30 08:18:58;;;;;;;;;;;;;;;12.59;82.33;99921.08;84807;1325;22551;-70
2022/05/30 08:21:04;;;;;;;;;;;;;;;12.60;82.03;99919.58;84815;1323;24231;-71
2022/05/30 08:23:10;;;;;;;;;;;;;;;12.61;81.94;99920.94;84833;1322;22560;-70
2022/05/30 08:25:17;;;;;;;;;;;;;;;12.61;81.90;99924.61;84799;1324;22599;-70
2022/05/30 08:27:23;;;;;;;;;;;;;;;12.60;81.49;99922.56;84832;1323;22573;-70
2022/05/30 08:29:30;;;;;;;;;;;;;;;12.56;81.38;99921.91;84830;1324;22923;-70
2022/05/30 08:31:36;;;;;;;;;;;;;;;12.52;81.27;99922.33;84812;1325;22930;-70
2022/05/30 08:33:42;;;;;;;;;;;;;;;12.49;81.21;99919.14;84819;1322;22636;-69
2022/05/30 08:35:57;;;;;;;;;;;;;;;12.47;81.29;99921.70;84819;1324;22585;-72
2022/05/30 08:38:03;;;;;;;;;;;;;;;12.46;81.64;99921.60;84820;1324;23850;-71
2022/05/30 08:42:42;;;;;;;;;;;;;;;12.34;80.79;99921.33;84523;1333;23135;-71
2022/05/30 08:44:48;;;;;;;;;;;;;;;12.28;80.75;99918.17;84744;1327;22586;-72
2022/05/30 08:47:01;;;;;;;;;;;;;;;12.23;80.74;99922.12;84820;1324;22658;-70
2022/05/30 08:49:17;;;;;;;;;;;;;;;12.19;80.91;99923.36;84808;1323;25327;-72
2022/05/30 08:51:39;;;;;;;;;;;;;;;12.16;80.83;99923.16;84800;1323;23740;-72
2022/05/30 08:54:01;;;;;;;;;;;;;;;12.14;81.15;99925.88;84818;1324;22572;-72
2022/05/30 08:56:13;;;;;;;;;;;;;;;12.16;81.55;99925.09;84741;1324;22562;-72
2022/05/30 08:58:27;;;;;;;;;;;;;;;12.18;81.69;99924.80;84825;1324;22564;-72
2022/05/30 09:00:36;;;;;;;;;;;;;;;12.22;81.81;99921.63;84838;1324;22835;-73
2022/05/30 09:02:45;;;;;;;;;;;;;;;12.25;81.94;99924.05;84819;1324;22870;-72
2022/05/30 09:04:53;;;;;;;;;;;;;;;12.29;82.21;99918.48;84806;1322;22583;-72
2022/05/30 09:07:01;;;;;;;;;;;;;;;12.31;81.93;99920.06;84823;1322;22664;-71
2022/05/30 09:09:10;;;;;;;;;;;;;;;12.33;82.04;99917.92;84844;1323;25293;-71
2022/05/30 09:11:23;;;;;;;;;;;;;;;12.35;82.02;99915.32;84828;1324;22607;-72
2022/05/30 09:13:30;;;;;;;;;;;;;;;12.38;82.23;99916.23;84814;1322;22790;-72
2022/05/30 09:15:41;;;;;;;;;;;;;;;12.43;82.20;99914.23;84842;1323;23842;-71
2022/05/30 09:17:48;;;;;;;;;;;;;;;12.48;81.84;99914.13;84805;1323;22611;-72
2022/05/30 09:19:55;;;;;;;;;;;;;;;12.54;81.42;99916.64;84826;1323;22759;-73
2022/05/30 09:22:03;;;;;;;;;;;;;;;12.59;81.40;99912.86;84810;1322;22603;-73
2022/05/30 09:24:09;;;;;;;;;;;;;;;12.67;81.49;99918.36;84839;1323;22674;-73
2022/05/30 09:26:17;;;;;;;;;;;;;;;12.77;82.01;99914.81;84794;1324;25443;-72
2022/05/30 09:28:23;;;;;;;;;;;;;;;12.93;82.21;99916.09;84827;1324;22588;-71
2022/05/30 09:30:32;;;;;;;;;;;;;;;13.04;81.42;99918.42;84836;1319;22561;-71
2022/05/30 09:32:43;;;;;;;;;;;;;;;13.14;81.26;99920.54;84836;1323;22591;-71
2022/05/30 09:34:51;;;;;;;;;;;;;;;13.25;81.13;99919.39;84827;1324;22592;-72
2022/05/30 09:36:57;;;;;;;;;;;;;;;13.39;81.17;99918.59;84832;1323;22578;-72
2022/05/30 09:39:06;;;;;;;;;;;;;;;13.58;81.28;99918.20;84831;1323;22556;-70
2022/05/30 09:41:16;;;;;;;;;;;;;;;13.73;80.50;99915.77;84828;1324;22849;-73
2022/05/30 09:43:27;;;;;;;;;;;;;;;13.85;80.27;99910.52;84806;1323;25440;-73
2022/05/30 09:45:34;;;;;;;;;;;;;;;13.93;79.34;99911.42;84838;1323;22575;-73
2022/05/30 09:50:19;;;;;;;;;;;;;;;14.01;78.63;99912.39;81899;1369;544545;-70
2022/05/30 09:52:37;;;;;;;;;;;;;;;14.09;78.90;99909.48;84196;1341;24338;-70
2022/05/30 09:54:43;;;;;;;;;;;;;;;14.19;79.05;99908.98;84211;1340;25246;-71
2022/05/30 09:56:49;;;;;;;;;;;;;;;14.27;78.78;99908.55;84199;1339;24045;-71
2022/05/30 10:06:46;;;;;;;;;;;;;;;14.38;77.43;99908.36;80241;1342;22634;-71
2022/05/30 10:12:31;;;;;;;;;;;;;;;14.61;77.42;99908.08;83670;1341;22611;-72
2022/05/30 10:14:40;;;;;;;;;;;;;;;14.78;76.75;99905.42;84429;1339;22591;-72
2022/05/30 10:16:46;;;;;;;;;;;;;;;14.84;75.88;99901.67;84403;1336;22678;-72
2022/05/30 10:19:04;;;;;;;;;;;;;;;14.93;76.61;99907.29;84406;1339;22573;-72
2022/05/30 10:21:33;;;;;;;;;;;;;;;14.99;75.27;99911.14;84381;1336;22592;-72
2022/05/30 10:30:39;;;;;;;;;;;;;;;14.89;74.18;99914.91;84405;1337;25448;-72
2022/05/30 10:33:15;;;;;;;;;;;;;;;14.80;73.19;99915.84;84387;1338;22586;-72
2022/05/30 10:35:49;;;;;;;;;;;;;;;14.68;73.77;99922.52;84289;1337;22556;-72
2022/05/30 10:38:38;;;;;;;;;;;;;;;;;;;;;
2022/05/30 10:51:54;;;;;;;;;;;;;;;15.20;76.27;99929.09;83826;1342;22585;-72
2022/05/30 10:55:30;;;;;;;;;;;;;;;15.42;75.00;99932.05;83095;1350;22597;-72
2022/05/30 10:58:59;;;;;;;;;;;;;;;15.46;73.25;99938.63;83270;1351;22596;-72
2022/05/30 11:02:25;;;;;;;;;;;;;;;15.53;73.44;99934.88;83370;1348;22647;-72
2022/05/30 11:06:08;;;;;;;;;;;;;;;;;;;;;
2022/05/30 11:09:56;;;;;;;;;;;;;;;;;;;;;
2022/05/30 11:25:56;;;;;;;;;;;;;;;15.72;72.81;99938.34;82679;1352;22583;-72
2022/05/30 12:26:19;;;;;;;;;;;;;;;17.00;67.78;99937.52;84185;1329;25251;-71
2022/05/30 12:28:55;;;;;;;;;;;;;;;16.98;68.01;99939.59;84197;1338;24076;-72
2022/05/30 12:31:49;;;;;;;;;;;;;;;16.96;67.77;99942.05;84361;1336;22679;-71
2022/05/30 12:35:05;;;;;;;;;;;;;;;16.91;67.28;99947.30;84195;1339;22603;-72
2022/05/30 12:37:51;;;;;;;;;;;;;;;16.95;66.71;99939.63;84237;1331;22586;-72
2022/05/30 12:40:01;;;;;;;;;;;;;;;17.02;66.60;99938.07;84393;1333;22626;-72
2022/05/30 12:42:10;;;;;;;;;;;;;;;17.04;66.01;99942.84;84431;1334;22664;-72
2022/05/30 12:44:51;;;;;;;;;;;;;;;16.97;66.15;99946.33;84409;1333;22642;-72
2022/05/30 12:47:09;;;;;;;;;;;;;;;16.75;65.45;99953.88;84373;1336;25476;-72
2022/05/30 12:52:59;;;;;;;;;;;;;;;16.06;64.92;99965.35;84550;1330;22658;-72
2022/05/30 12:59:08;;;;;;;;;;;;;;;15.43;65.55;99970.46;84418;1331;22668;-70
2022/05/30 13:04:25;;;;;;;;;;;;;;;15.02;66.32;99977.83;84507;1334;25083;-70
2022/05/30 13:06:31;;;;;;;;;;;;;;;14.90;66.72;99984.71;84671;1331;22595;-71
2022/05/30 13:09:06;;;;;;;;;;;;;;;14.83;66.92;99990.48;84650;1326;24232;-70
2022/05/30 13:11:15;;;;;;;;;;;;;;;14.74;67.44;99994.02;84567;1328;24226;-70
2022/05/30 13:13:27;;;;;;;;;;;;;;;14.66;67.70;100000.07;84651;1331;26308;-71
2022/05/30 13:15:37;;;;;;;;;;;;;;;14.56;67.91;100002.63;84543;1332;24379;-71
2022/05/30 13:17:57;;;;;;;;;;;;;;;14.42;67.99;100010.08;84564;1326;24213;-70
2022/05/30 13:20:12;;;;;;;;;;;;;;;14.32;68.12;100013.35;84552;1333;22589;-72
2022/05/30 13:22:23;;;;;;;;;;;;;;;14.19;68.42;100019.35;84552;1330;23155;-71
2022/05/30 13:24:47;;;;;;;;;;;;;;;14.10;68.89;100019.19;84558;1332;25371;-70
2022/05/30 13:27:15;;;;;;;;;;;;;;;14.00;68.97;100021.88;84458;1329;22609;-70
2022/05/30 13:29:38;;;;;;;;;;;;;;;13.94;69.05;100022.39;84545;1329;22702;-71
2022/05/30 13:31:44;;;;;;;;;;;;;;;13.85;68.74;100022.19;84674;1329;22805;-70
2022/05/30 13:33:51;;;;;;;;;;;;;;;13.80;69.00;100024.98;84602;1330;22594;-70
2022/05/30 13:35:59;;;;;;;;;;;;;;;13.77;69.36;100025.30;84642;1330;25420;-71
2022/05/30 13:38:08;;;;;;;;;;;;;;;13.78;69.42;100029.27;84652;1331;22791;-70
2022/05/30 13:40:16;;;;;;;;;;;;;;;13.81;69.67;100031.20;84654;1329;22618;-70